createdAt,value
2022-08-10T00:01:53.203Z,77.70
2022-08-10T00:04:24.483Z,77.80
2022-08-10T00:06:55.423Z,77.80
2022-08-10T00:09:23.400Z,78.10
2022-08-10T00:11:50.906Z,78.20
2022-08-10T00:14:18.311Z,78.40
2022-08-10T00:16:45.159Z,78.50
2022-08-10T00:19:12.078Z,78.70
2022-08-10T00:21:39.292Z,78.80
2022-08-10T00:24:06.324Z,78.80
2022-08-10T00:27:58.849Z,78.80
2022-08-10T00:29:21.391Z,78.80
2022-08-10T00:31:57.889Z,78.90
2022-08-10T00:34:34.077Z,79.10
2022-08-10T00:37:01.309Z,79.20
2022-08-10T00:39:29.449Z,79.30
2022-08-10T00:42:06.576Z,79.40
2022-08-10T00:44:37.020Z,79.50
2022-08-10T00:47:04.411Z,79.70
2022-08-10T00:49:31.375Z,79.90
2022-08-10T00:51:58.452Z,79.90
2022-08-10T00:54:25.630Z,80.20
2022-08-10T00:57:16.442Z,80.80
2022-08-10T00:59:59.276Z,80.40
2022-08-10T01:02:30.727Z,80.50
2022-08-10T01:05:02.138Z,80.60
2022-08-10T01:07:50.908Z,80.60
2022-08-10T01:10:48.002Z,80.80
2022-08-10T01:13:40.315Z,80.80
2022-08-10T01:16:49.375Z,80.90
2022-08-10T01:19:18.996Z,80.90
2022-08-10T01:22:04.258Z,81.10
2022-08-10T01:24:47.123Z,81.20
2022-08-10T01:27:47.333Z,81.20
2022-08-10T01:30:15.380Z,81.30
2022-08-10T01:32:51.081Z,81.40
2022-08-10T01:35:47.023Z,81.30
2022-08-10T01:38:20.160Z,81.40
2022-08-10T01:40:54.699Z,81.70
2022-08-10T01:43:24.243Z,81.90
2022-08-10T01:45:56.216Z,81.80
2022-08-10T01:48:31.916Z,81.90
2022-08-10T01:51:11.074Z,82.10
2022-08-10T01:53:43.113Z,82.40
2022-08-10T01:56:13.418Z,82.60
2022-08-10T01:58:41.545Z,82.80
2022-08-10T02:01:11.107Z,83.20
2022-08-10T02:04:03.850Z,83.30
2022-08-10T02:06:37.011Z,83.50
2022-08-10T02:09:07.154Z,83.50
2022-08-10T02:11:55.640Z,83.60
2022-08-10T02:14:33.263Z,83.80
2022-08-10T02:17:05.771Z,83.90
2022-08-10T02:19:35.297Z,84.10
2022-08-10T02:22:37.954Z,84.50
2022-08-10T02:24:52.176Z,84.70
2022-08-10T02:27:22.624Z,85.00
2022-08-10T02:29:50.612Z,85.20
2022-08-10T02:32:35.977Z,85.20
2022-08-10T02:35:21.776Z,85.30
2022-08-10T02:37:52.699Z,85.50
2022-08-10T02:42:18.328Z,85.60
2022-08-10T02:45:22.070Z,85.80
2022-08-10T02:46:10.665Z,86.00
2022-08-10T02:48:49.714Z,86.80
2022-08-10T02:52:06.266Z,86.70
2022-08-10T02:54:19.998Z,87.00
2022-08-10T02:57:00.806Z,87.30
2022-08-10T02:59:43.165Z,87.90
2022-08-10T03:02:15.021Z,88.20
2022-08-10T03:04:55.184Z,88.40
2022-08-10T03:07:43.376Z,88.50
2022-08-10T03:10:17.340Z,88.70
2022-08-10T03:12:45.611Z,88.90
2022-08-10T03:15:16.027Z,89.20
2022-08-10T03:17:58.140Z,89.30
2022-08-10T03:20:52.833Z,89.40
2022-08-10T03:23:23.957Z,89.30
2022-08-10T03:25:55.380Z,89.50
2022-08-10T03:28:25.195Z,89.70
2022-08-10T03:30:53.010Z,90.00
2022-08-10T03:33:22.051Z,90.10
2022-08-10T03:36:40.643Z,90.20
2022-08-10T03:38:36.655Z,90.30
2022-08-10T03:41:06.131Z,90.40
2022-08-10T03:43:34.703Z,90.40
2022-08-10T03:46:06.323Z,90.50
2022-08-10T03:48:48.465Z,90.60
2022-08-10T03:51:17.475Z,90.70
2022-08-10T03:54:05.064Z,90.80
2022-08-10T03:56:33.245Z,90.80
2022-08-10T03:59:01.291Z,90.90
2022-08-10T04:02:46.141Z,90.90
2022-08-10T04:04:20.957Z,90.90
2022-08-10T04:06:54.684Z,90.90
2022-08-10T04:09:42.783Z,90.90
2022-08-10T04:12:12.664Z,91.00
2022-08-10T04:14:50.886Z,91.00
2022-08-10T04:17:57.166Z,91.10
2022-08-10T04:20:25.598Z,91.10
2022-08-10T04:22:59.484Z,91.10
2022-08-10T04:25:27.867Z,91.20
2022-08-10T04:27:55.340Z,91.10
2022-08-10T04:30:23.830Z,91.10
2022-08-10T04:32:56.631Z,91.20
2022-08-10T04:35:26.106Z,91.20
2022-08-10T04:37:55.834Z,91.20
2022-08-10T04:40:28.587Z,91.20
2022-08-10T04:43:02.371Z,91.20
2022-08-10T04:45:49.681Z,91.20
2022-08-10T04:48:43.166Z,91.20
2022-08-10T04:51:08.125Z,91.20
2022-08-10T04:54:04.245Z,91.30
2022-08-10T04:56:32.029Z,91.40
2022-08-10T04:59:00.246Z,91.40
2022-08-10T05:01:27.481Z,91.60
2022-08-10T05:04:36.094Z,91.80
2022-08-10T05:07:00.913Z,91.90
2022-08-10T05:09:27.724Z,92.10
2022-08-10T05:11:54.563Z,92.20
2022-08-10T05:14:21.307Z,92.40
2022-08-10T05:16:48.291Z,92.40
2022-08-10T05:19:15.100Z,92.50
2022-08-10T05:21:52.209Z,92.50
2022-08-10T05:24:28.799Z,92.80
2022-08-10T05:27:09.278Z,92.90
2022-08-10T05:29:36.692Z,92.70
2022-08-10T05:32:03.870Z,92.70
2022-08-10T05:34:30.695Z,92.70
2022-08-10T05:36:58.309Z,92.60
2022-08-10T05:39:30.124Z,92.60
2022-08-10T05:42:01.189Z,92.70
2022-08-10T05:44:29.630Z,92.50
2022-08-10T05:46:56.868Z,92.50
2022-08-10T05:49:23.850Z,92.50
2022-08-10T05:51:51.117Z,92.30
2022-08-10T05:54:18.327Z,92.30
2022-08-10T05:56:55.099Z,92.20
2022-08-10T06:00:10.711Z,92.20
2022-08-10T06:02:40.793Z,92.40
2022-08-10T06:05:14.054Z,92.40
2022-08-10T06:07:59.612Z,92.40
2022-08-10T06:10:32.986Z,92.60
2022-08-10T06:13:30.869Z,92.50
2022-08-10T06:16:05.578Z,92.60
2022-08-10T06:18:32.945Z,92.60
2022-08-10T06:21:00.798Z,92.60
2022-08-10T06:23:30.007Z,92.70
2022-08-10T06:26:08.704Z,92.70
2022-08-10T06:28:54.029Z,92.80
2022-08-10T06:31:47.834Z,92.80
2022-08-10T06:34:20.519Z,92.60
2022-08-10T06:36:49.099Z,92.60
2022-08-10T06:39:32.811Z,92.60
2022-08-10T06:42:30.465Z,92.40
2022-08-10T06:45:03.106Z,92.50
2022-08-10T06:47:42.005Z,92.20
2022-08-10T06:50:44.835Z,92.20
2022-08-10T06:53:13.767Z,92.00
2022-08-10T06:55:55.157Z,91.90
2022-08-10T06:58:29.083Z,91.90
2022-08-10T07:00:56.625Z,92.00
2022-08-10T07:03:31.662Z,92.00
2022-08-10T07:06:00.551Z,91.90
2022-08-10T07:08:32.653Z,91.80
2022-08-10T07:11:02.614Z,91.70
2022-08-10T07:14:15.731Z,91.60
2022-08-10T07:16:19.714Z,91.50
2022-08-10T07:18:48.552Z,91.40
2022-08-10T07:21:17.867Z,91.40
2022-08-10T07:23:59.447Z,91.20
2022-08-10T07:26:30.251Z,91.10
2022-08-10T07:28:58.405Z,91.00
2022-08-10T07:31:51.175Z,91.00
2022-08-10T07:34:21.668Z,91.00
2022-08-10T07:37:00.647Z,90.90
2022-08-10T07:39:58.210Z,90.60
2022-08-10T07:42:21.962Z,90.30
2022-08-10T07:44:50.597Z,90.20
2022-08-10T07:47:52.662Z,90.10
2022-08-10T07:50:13.945Z,89.90
2022-08-10T07:52:42.237Z,89.50
2022-08-10T07:55:14.497Z,89.20
2022-08-10T07:57:44.431Z,88.90
2022-08-10T08:00:12.780Z,88.30
2022-08-10T08:02:52.446Z,87.80
2022-08-10T08:05:53.721Z,87.10
2022-08-10T08:08:10.172Z,86.70
2022-08-10T08:10:38.622Z,86.40
2022-08-10T08:13:06.049Z,86.00
2022-08-10T08:16:18.097Z,85.50
2022-08-10T08:18:25.297Z,85.10
2022-08-10T08:20:54.419Z,84.80
2022-08-10T08:24:30.904Z,83.70
2022-08-10T08:26:11.802Z,83.10
2022-08-10T08:28:43.590Z,82.70
2022-08-10T08:31:10.744Z,82.30
2022-08-10T08:33:42.378Z,82.00
2022-08-10T08:36:10.821Z,81.90
2022-08-10T08:38:38.953Z,80.80
2022-08-10T08:41:45.651Z,80.10
2022-08-10T08:44:34.890Z,79.80
2022-08-10T08:47:33.699Z,79.30
2022-08-10T08:50:15.424Z,78.70
2022-08-10T08:54:01.971Z,78.10
2022-08-10T08:56:26.488Z,78.10
2022-08-10T08:59:19.577Z,78.20
2022-08-10T09:02:22.639Z,77.90
2022-08-10T09:05:17.072Z,77.60
2022-08-10T09:08:10.567Z,77.40
2022-08-10T09:10:42.568Z,77.00
2022-08-10T09:13:34.646Z,76.20
2022-08-10T09:16:24.531Z,74.70
2022-08-10T09:18:54.448Z,74.50
2022-08-10T09:21:58.784Z,74.60
2022-08-10T09:24:46.143Z,73.30
2022-08-10T09:27:20.349Z,71.70
2022-08-10T09:30:02.311Z,71.80
2022-08-10T09:36:16.775Z,71.30
2022-08-10T09:36:21.070Z,70.50
2022-08-10T09:38:37.906Z,71.10
2022-08-10T09:41:13.898Z,70.10
2022-08-10T09:43:57.017Z,69.00
2022-08-10T09:46:42.523Z,67.60
2022-08-10T09:50:04.501Z,65.60
2022-08-10T09:52:58.821Z,64.70
2022-08-10T09:56:19.012Z,66.30
2022-08-10T09:59:26.759Z,66.80
2022-08-10T10:02:27.676Z,65.50
2022-08-10T10:05:03.539Z,65.50
2022-08-10T10:07:30.807Z,66.40
2022-08-10T10:10:08.918Z,66.90
2022-08-10T10:12:54.157Z,67.40
2022-08-10T10:15:54.966Z,66.90
2022-08-10T10:18:49.623Z,66.10
2022-08-10T10:22:00.299Z,65.80
2022-08-10T10:24:47.856Z,65.90
2022-08-10T10:27:32.552Z,65.60
2022-08-10T10:30:08.451Z,65.30
2022-08-10T10:32:47.116Z,64.20
2022-08-10T10:35:31.617Z,64.10
2022-08-10T10:38:03.574Z,63.70
2022-08-10T10:41:13.349Z,63.80
2022-08-10T10:44:04.830Z,63.30
2022-08-10T10:46:53.793Z,63.80
2022-08-10T10:49:38.497Z,64.20
2022-08-10T10:52:26.248Z,64.40
2022-08-10T10:55:03.366Z,64.30
2022-08-10T10:57:58.575Z,63.60
2022-08-10T11:00:37.043Z,62.90
2022-08-10T11:03:15.392Z,62.30
2022-08-10T11:06:09.791Z,62.60
2022-08-10T11:08:52.319Z,62.50
2022-08-10T11:12:01.776Z,61.90
2022-08-10T11:14:41.151Z,61.10
2022-08-10T11:17:18.851Z,60.80
2022-08-10T11:20:02.410Z,59.50
2022-08-10T11:22:37.115Z,59.60
2022-08-10T11:25:26.238Z,59.20
2022-08-10T11:27:52.995Z,59.30
2022-08-10T11:30:42.534Z,58.70
2022-08-10T11:33:31.105Z,58.60
2022-08-10T11:36:05.362Z,58.40
2022-08-10T11:39:03.958Z,58.50
2022-08-10T11:42:09.501Z,59.20
2022-08-10T11:44:53.765Z,59.60
2022-08-10T11:47:45.050Z,59.50
2022-08-10T11:50:36.811Z,59.80
2022-08-10T11:53:03.543Z,59.80
2022-08-10T11:55:33.087Z,60.20
2022-08-10T11:58:27.946Z,60.00
2022-08-10T12:01:02.322Z,59.70
2022-08-10T12:03:34.837Z,60.00
2022-08-10T12:06:04.347Z,60.10
2022-08-10T12:10:04.664Z,59.60
2022-08-10T12:11:26.398Z,59.70
2022-08-10T12:14:21.398Z,59.30
2022-08-10T12:16:52.733Z,59.30
2022-08-10T12:19:59.282Z,59.30
2022-08-10T12:22:31.667Z,59.10
2022-08-10T12:25:03.598Z,58.90
2022-08-10T12:27:46.828Z,58.80
2022-08-10T12:30:18.185Z,58.80
2022-08-10T12:33:03.005Z,58.90
2022-08-10T12:36:16.872Z,58.30
2022-08-10T12:39:13.657Z,58.60
2022-08-10T12:43:02.534Z,58.50
2022-08-10T12:45:19.007Z,58.20
2022-08-10T12:47:52.952Z,58.00
2022-08-10T12:50:32.921Z,58.00
2022-08-10T12:53:41.567Z,58.10
2022-08-10T12:56:08.537Z,58.10
2022-08-10T12:58:58.799Z,57.90
2022-08-10T13:02:09.950Z,57.30
2022-08-10T13:04:24.683Z,56.70
2022-08-10T13:06:52.729Z,56.50
2022-08-10T13:09:24.469Z,56.60
2022-08-10T13:12:35.532Z,56.70
2022-08-10T13:15:45.754Z,57.00
2022-08-10T13:18:18.605Z,56.90
2022-08-10T13:20:52.194Z,57.00
2022-08-10T13:23:26.879Z,57.00
2022-08-10T13:25:56.785Z,56.60
2022-08-10T13:28:39.533Z,56.60
2022-08-10T13:31:16.845Z,56.70
2022-08-10T13:34:36.580Z,56.70
2022-08-10T13:36:47.559Z,56.50
2022-08-10T13:39:17.530Z,56.30
2022-08-10T13:41:47.138Z,56.20
2022-08-10T13:44:27.101Z,55.80
2022-08-10T13:46:55.696Z,55.80
2022-08-10T13:49:23.272Z,55.50
2022-08-10T13:51:54.105Z,55.20
2022-08-10T13:54:29.088Z,55.10
2022-08-10T13:56:57.061Z,54.60
2022-08-10T14:00:37.564Z,54.30
2022-08-10T14:02:48.032Z,54.20
2022-08-10T14:05:22.512Z,53.50
2022-08-10T14:08:00.409Z,52.90
2022-08-10T14:11:08.683Z,52.30
2022-08-10T14:13:21.959Z,52.20
2022-08-10T14:15:50.380Z,51.20
2022-08-10T14:18:18.788Z,51.30
2022-08-10T14:20:47.992Z,51.00
2022-08-10T14:23:16.126Z,50.90
2022-08-10T14:25:45.636Z,51.00
2022-08-10T14:28:14.584Z,51.00
2022-08-10T14:30:43.806Z,50.90
2022-08-10T14:33:15.591Z,50.30
2022-08-10T14:36:22.259Z,50.30
2022-08-10T14:38:35.745Z,50.40
2022-08-10T14:41:11.383Z,50.20
2022-08-10T14:43:42.347Z,50.30
2022-08-10T14:46:19.720Z,50.50
2022-08-10T14:48:49.664Z,50.00
2022-08-10T14:51:26.015Z,50.20
2022-08-10T14:53:55.900Z,50.40
2022-08-10T14:56:28.272Z,50.40
2022-08-10T14:59:05.718Z,50.50
2022-08-10T15:02:39.066Z,50.60
2022-08-10T15:04:28.324Z,50.30
2022-08-10T15:07:12.390Z,50.30
2022-08-10T15:09:59.435Z,50.30
2022-08-10T15:12:38.300Z,50.60
2022-08-10T15:15:09.606Z,51.00
2022-08-10T15:17:39.721Z,51.00
2022-08-10T15:20:21.552Z,51.00
2022-08-10T15:22:53.951Z,51.80
2022-08-10T15:25:26.159Z,51.20
2022-08-10T15:28:08.245Z,50.90
2022-08-10T15:30:45.257Z,50.20
2022-08-10T15:33:57.399Z,50.20
2022-08-10T15:36:43.685Z,50.00
2022-08-10T15:40:22.410Z,49.80
2022-08-10T15:43:27.784Z,50.10
2022-08-10T15:46:17.167Z,50.20
2022-08-10T15:48:48.256Z,50.10
2022-08-10T15:51:33.824Z,50.10
2022-08-10T15:54:17.767Z,50.20
2022-08-10T15:57:09.576Z,50.30
2022-08-10T15:59:53.528Z,50.70
2022-08-10T16:02:26.224Z,50.80
2022-08-10T16:05:06.616Z,50.90
2022-08-10T16:07:49.116Z,50.90
2022-08-10T16:10:29.340Z,50.90
2022-08-10T16:13:51.090Z,50.60
2022-08-10T16:15:55.320Z,50.80
2022-08-10T16:18:26.983Z,50.70
2022-08-10T16:20:57.828Z,50.50
2022-08-10T16:23:29.311Z,50.50
2022-08-10T16:26:05.099Z,50.70
2022-08-10T16:28:55.447Z,50.60
2022-08-10T16:31:25.889Z,50.80
2022-08-10T16:33:55.498Z,50.80
2022-08-10T16:36:34.169Z,50.90
2022-08-10T16:39:02.015Z,50.50
2022-08-10T16:42:02.193Z,50.40
2022-08-10T16:44:22.970Z,50.30
2022-08-10T16:46:50.623Z,50.40
2022-08-10T16:49:19.465Z,50.50
2022-08-10T16:51:48.415Z,50.60
2022-08-10T16:54:26.363Z,50.90
2022-08-10T16:57:02.703Z,51.10
2022-08-10T16:59:36.796Z,51.40
2022-08-10T17:02:05.061Z,52.00
2022-08-10T17:04:35.353Z,51.60
2022-08-10T17:07:11.552Z,51.50
2022-08-10T17:09:39.516Z,51.50
2022-08-10T17:12:11.571Z,51.60
2022-08-10T17:14:40.547Z,51.60
2022-08-10T17:17:26.454Z,52.00
2022-08-10T17:20:32.141Z,51.10
2022-08-10T17:22:49.561Z,50.60
2022-08-10T17:25:23.457Z,50.70
2022-08-10T17:28:12.552Z,50.70
2022-08-10T17:30:57.631Z,51.30
2022-08-10T17:33:30.608Z,51.40
2022-08-10T17:36:03.480Z,51.50
2022-08-10T17:38:31.495Z,52.10
2022-08-10T17:41:11.957Z,52.70
2022-08-10T17:43:46.331Z,53.30
2022-08-10T17:46:33.068Z,53.60
2022-08-10T17:49:05.137Z,53.90
2022-08-10T17:51:36.455Z,54.30
2022-08-10T17:54:31.236Z,55.00
2022-08-10T17:57:01.808Z,54.50
2022-08-10T17:59:31.980Z,54.70
2022-08-10T18:02:14.795Z,54.80
2022-08-10T18:04:48.775Z,55.00
2022-08-10T18:07:16.268Z,55.10
2022-08-10T18:09:49.751Z,55.30
2022-08-10T18:12:29.128Z,55.10
2022-08-10T18:15:04.457Z,55.20
2022-08-10T18:17:39.684Z,55.30
2022-08-10T18:20:08.776Z,55.40
2022-08-10T18:22:48.076Z,55.50
2022-08-10T18:25:23.670Z,55.80
2022-08-10T18:28:04.076Z,55.80
2022-08-10T18:30:36.584Z,55.90
2022-08-10T18:33:08.654Z,56.00
2022-08-10T18:35:36.011Z,56.10
2022-08-10T18:38:04.898Z,56.30
2022-08-10T18:40:35.775Z,56.40
2022-08-10T18:44:07.198Z,56.40
2022-08-10T18:45:57.220Z,56.50
2022-08-10T18:48:33.630Z,56.70
2022-08-10T18:51:06.104Z,56.90
2022-08-10T18:53:48.066Z,57.00
2022-08-10T18:56:21.111Z,57.10
2022-08-10T18:59:15.913Z,57.20
2022-08-10T19:02:01.160Z,57.20
2022-08-10T19:04:35.886Z,57.30
2022-08-10T19:07:30.353Z,57.40
2022-08-10T19:10:06.165Z,57.60
2022-08-10T19:12:41.348Z,57.70
2022-08-10T19:15:34.442Z,57.90
2022-08-10T19:18:07.422Z,58.10
2022-08-10T19:21:02.791Z,58.20
2022-08-10T19:23:29.543Z,58.40
2022-08-10T19:26:41.861Z,58.50
2022-08-10T19:30:11.996Z,58.70
2022-08-10T19:32:19.216Z,58.80
2022-08-10T19:35:08.284Z,58.80
2022-08-10T19:38:00.293Z,58.90
2022-08-10T19:40:44.537Z,59.00
2022-08-10T19:44:00.807Z,59.20
2022-08-10T19:46:39.914Z,59.30
2022-08-10T19:49:25.181Z,59.50
2022-08-10T19:52:11.573Z,59.50
2022-08-10T19:54:43.075Z,59.60
2022-08-10T19:57:26.050Z,59.80
2022-08-10T20:00:18.734Z,59.80
2022-08-10T20:02:51.581Z,59.90
2022-08-10T20:05:23.240Z,60.10
2022-08-10T20:07:58.563Z,60.40
2022-08-10T20:10:33.646Z,60.60
2022-08-10T20:13:42.720Z,60.80
2022-08-10T20:16:26.693Z,61.20
2022-08-10T20:19:24.562Z,61.40
2022-08-10T20:22:14.444Z,61.70
2022-08-10T20:24:52.420Z,62.10
2022-08-10T20:27:57.826Z,62.70
2022-08-10T20:30:14.160Z,63.60
2022-08-10T20:32:54.683Z,63.50
2022-08-10T20:35:58.720Z,63.80
2022-08-10T20:38:34.105Z,64.70
2022-08-10T20:41:12.940Z,64.70
2022-08-10T20:44:03.733Z,65.10
2022-08-10T20:46:40.608Z,65.60
2022-08-10T20:49:52.875Z,66.40
2022-08-10T20:52:22.920Z,66.60
2022-08-10T20:54:53.959Z,66.80
2022-08-10T20:57:54.684Z,66.80
2022-08-10T21:00:17.140Z,67.10
2022-08-10T21:03:21.101Z,67.30
2022-08-10T21:06:41.383Z,67.70
2022-08-10T21:09:37.524Z,67.70
2022-08-10T21:12:48.763Z,67.90
2022-08-10T21:15:31.786Z,68.20
2022-08-10T21:18:12.052Z,68.10
2022-08-10T21:20:54.205Z,68.20
2022-08-10T21:23:45.993Z,68.30
2022-08-10T21:26:29.796Z,68.20
2022-08-10T21:28:56.725Z,68.00
2022-08-10T21:31:27.951Z,68.00
2022-08-10T21:34:10.509Z,67.90
2022-08-10T21:36:39.997Z,67.80
2022-08-10T21:39:45.595Z,67.80
2022-08-10T21:42:57.236Z,67.70
2022-08-10T21:46:18.302Z,67.60
2022-08-10T21:49:17.252Z,67.50
2022-08-10T21:56:15.818Z,67.50
2022-08-10T21:59:19.003Z,67.50
2022-08-10T22:02:11.570Z,67.30
2022-08-10T22:04:57.933Z,67.30
2022-08-10T22:07:46.858Z,67.30
2022-08-10T22:10:35.971Z,67.30
2022-08-10T22:13:23.747Z,67.40
2022-08-10T22:16:17.286Z,67.70
2022-08-10T22:19:08.549Z,67.90
2022-08-10T22:25:52.150Z,67.90
2022-08-10T22:28:38.313Z,67.60
2022-08-10T22:31:26.094Z,68.20
2022-08-10T22:31:38.498Z,67.40
2022-08-10T22:34:45.472Z,67.40
2022-08-10T22:37:55.305Z,67.70
2022-08-10T22:40:43.178Z,67.60
2022-08-10T22:43:36.901Z,67.70
2022-08-10T22:46:29.816Z,67.60
2022-08-10T22:48:59.677Z,67.60
2022-08-10T22:51:56.894Z,67.10
2022-08-10T22:54:51.225Z,67.30
2022-08-10T22:57:37.054Z,67.50
2022-08-10T23:00:15.482Z,67.50
2022-08-10T23:03:03.983Z,67.60
2022-08-10T23:05:34.692Z,67.50
2022-08-10T23:08:29.651Z,67.40
2022-08-10T23:11:02.064Z,67.30
2022-08-10T23:13:35.494Z,67.30
2022-08-10T23:16:38.963Z,67.40
2022-08-10T23:19:28.490Z,67.20
2022-08-10T23:22:04.507Z,67.40
2022-08-10T23:24:38.633Z,67.40
2022-08-10T23:27:12.867Z,67.50
2022-08-10T23:30:09.693Z,67.60
2022-08-10T23:32:41.684Z,67.70
2022-08-10T23:36:32.265Z,67.60
2022-08-10T23:38:08.039Z,67.50
2022-08-10T23:40:36.415Z,68.00
2022-08-10T23:43:05.595Z,67.50
2022-08-10T23:45:53.501Z,67.50
2022-08-10T23:48:23.671Z,67.60
2022-08-10T23:50:58.541Z,67.60
2022-08-10T23:53:38.757Z,67.60
2022-08-10T23:56:14.255Z,67.70
2022-08-10T23:58:47.193Z,67.70
